createdAt,value
2022-11-27T00:00:04.320Z,0.00
2022-11-27T00:01:04.310Z,0.00
2022-11-27T00:02:04.361Z,0.00
2022-11-27T00:03:04.389Z,0.00
2022-11-27T00:04:04.325Z,0.00
2022-11-27T00:05:04.269Z,0.00
2022-11-27T00:06:04.278Z,0.00
2022-11-27T00:07:04.297Z,0.00
2022-11-27T00:08:04.252Z,0.00
2022-11-27T00:09:04.239Z,0.00
2022-11-27T00:10:04.236Z,0.00
2022-11-27T00:11:04.229Z,0.00
2022-11-27T00:12:04.245Z,0.00
2022-11-27T00:13:04.211Z,0.00
2022-11-27T00:14:04.416Z,0.00
2022-11-27T00:15:04.410Z,0.00
2022-11-27T00:16:04.470Z,0.00
2022-11-27T00:17:04.425Z,0.00
2022-11-27T00:18:04.442Z,0.00
2022-11-27T00:19:04.336Z,0.00
2022-11-27T00:20:04.345Z,0.00
2022-11-27T00:21:04.258Z,0.00
2022-11-27T00:22:04.254Z,0.00
2022-11-27T00:23:04.175Z,0.00
2022-11-27T00:24:04.120Z,0.00
2022-11-27T00:25:04.115Z,0.00
2022-11-27T00:26:04.110Z,0.00
2022-11-27T00:27:04.128Z,0.00
2022-11-27T00:28:04.078Z,0.00
2022-11-27T00:29:04.077Z,0.00
2022-11-27T00:30:04.082Z,0.00
2022-11-27T00:31:04.136Z,0.00
2022-11-27T00:32:04.078Z,0.00
2022-11-27T00:33:04.047Z,0.00
2022-11-27T00:34:04.033Z,0.00
2022-11-27T00:35:04.039Z,0.00
2022-11-27T00:36:04.023Z,0.00
2022-11-27T00:37:04.049Z,0.00
2022-11-27T00:38:04.020Z,0.00
2022-11-27T00:39:03.993Z,0.00
2022-11-27T00:40:04.000Z,0.00
2022-11-27T00:41:03.978Z,0.00
2022-11-27T00:42:04.019Z,0.00
2022-11-27T00:43:03.964Z,0.00
2022-11-27T00:44:03.962Z,0.00
2022-11-27T00:45:03.954Z,0.00
2022-11-27T00:46:03.951Z,0.00
2022-11-27T00:47:04.031Z,0.00
2022-11-27T00:48:03.919Z,0.00
2022-11-27T00:49:03.919Z,0.00
2022-11-27T00:50:04.016Z,0.00
2022-11-27T00:51:03.898Z,0.00
2022-11-27T00:52:03.921Z,0.00
2022-11-27T00:53:03.885Z,0.00
2022-11-27T00:54:03.876Z,0.00
2022-11-27T00:55:03.866Z,0.00
2022-11-27T00:56:03.856Z,0.00
2022-11-27T00:57:03.884Z,0.00
2022-11-27T00:58:03.845Z,0.00
2022-11-27T00:59:03.848Z,0.00
2022-11-27T01:00:03.826Z,0.00
2022-11-27T01:01:03.810Z,0.00
2022-11-27T01:02:03.936Z,0.00
2022-11-27T01:03:03.862Z,0.00
2022-11-27T01:04:03.799Z,0.00
2022-11-27T01:05:03.787Z,0.00
2022-11-27T01:06:03.780Z,0.00
2022-11-27T01:07:03.799Z,0.00
2022-11-27T01:08:44.240Z,0.00
2022-11-27T01:09:03.766Z,0.00
2022-11-27T01:10:03.755Z,0.00
2022-11-27T01:11:03.742Z,0.00
2022-11-27T01:12:03.764Z,0.00
2022-11-27T01:13:03.726Z,0.00
2022-11-27T01:14:03.722Z,0.00
2022-11-27T01:15:03.711Z,0.00
2022-11-27T01:16:03.789Z,0.00
2022-11-27T01:17:03.719Z,0.00
2022-11-27T01:18:03.696Z,0.00
2022-11-27T01:19:03.678Z,0.00
2022-11-27T01:20:03.666Z,0.00
2022-11-27T01:21:03.666Z,0.00
2022-11-27T01:22:03.681Z,0.00
2022-11-27T01:23:03.636Z,0.00
2022-11-27T01:24:03.630Z,0.00
2022-11-27T01:25:03.614Z,0.00
2022-11-27T01:26:03.617Z,0.00
2022-11-27T01:27:03.638Z,0.00
2022-11-27T01:28:03.591Z,0.00
2022-11-27T01:29:03.587Z,0.00
2022-11-27T01:30:03.581Z,0.00
2022-11-27T01:31:03.591Z,0.00
2022-11-27T01:32:03.581Z,0.00
2022-11-27T01:33:03.585Z,0.00
2022-11-27T01:34:03.557Z,0.00
2022-11-27T01:35:03.545Z,0.00
2022-11-27T01:36:03.531Z,0.00
2022-11-27T01:37:03.524Z,0.00
2022-11-27T01:38:03.534Z,0.00
2022-11-27T01:39:04.545Z,0.00
2022-11-27T01:40:03.498Z,0.00
2022-11-27T01:41:03.491Z,0.00
2022-11-27T01:42:03.487Z,0.00
2022-11-27T01:43:03.501Z,0.00
2022-11-27T01:44:03.471Z,0.00
2022-11-27T01:45:03.469Z,0.00
2022-11-27T01:46:03.477Z,0.00
2022-11-27T01:47:03.448Z,0.00
2022-11-27T01:48:03.465Z,0.00
2022-11-27T01:49:03.429Z,0.00
2022-11-27T01:50:03.412Z,0.00
2022-11-27T01:51:03.409Z,0.00
2022-11-27T01:52:03.411Z,0.00
2022-11-27T01:53:03.428Z,0.00
2022-11-27T01:54:03.394Z,0.00
2022-11-27T01:55:03.371Z,0.00
2022-11-27T01:56:03.372Z,0.00
2022-11-27T01:57:03.355Z,0.00
2022-11-27T01:58:03.384Z,0.00
2022-11-27T01:59:03.341Z,0.00
2022-11-27T02:00:03.335Z,0.00
2022-11-27T02:01:03.328Z,0.00
2022-11-27T02:02:03.425Z,0.00
2022-11-27T02:03:03.457Z,0.00
2022-11-27T02:04:03.311Z,0.00
2022-11-27T02:05:03.302Z,0.00
2022-11-27T02:06:03.288Z,0.00
2022-11-27T02:07:03.277Z,0.00
2022-11-27T02:08:03.296Z,0.00
2022-11-27T02:09:03.261Z,0.00
2022-11-27T02:10:03.244Z,0.00
2022-11-27T02:11:03.251Z,0.00
2022-11-27T02:12:03.254Z,0.00
2022-11-27T02:13:03.255Z,0.00
2022-11-27T02:14:03.213Z,0.00
2022-11-27T02:15:03.205Z,0.00
2022-11-27T02:16:03.247Z,0.00
2022-11-27T02:17:03.194Z,0.00
2022-11-27T02:18:03.225Z,0.00
2022-11-27T02:19:03.177Z,0.00
2022-11-27T02:20:03.184Z,0.00
2022-11-27T02:21:03.163Z,0.00
2022-11-27T02:22:03.150Z,0.00
2022-11-27T02:23:03.177Z,0.00
2022-11-27T02:24:03.153Z,0.00
2022-11-27T02:25:03.129Z,0.00
2022-11-27T02:26:03.118Z,0.00
2022-11-27T02:27:03.117Z,0.00
2022-11-27T02:28:03.103Z,0.00
2022-11-27T02:29:03.131Z,0.00
2022-11-27T02:30:03.082Z,0.00
2022-11-27T02:31:03.106Z,0.00
2022-11-27T02:32:03.068Z,0.00
2022-11-27T02:33:03.054Z,0.00
2022-11-27T02:34:03.086Z,0.00
2022-11-27T02:35:03.044Z,0.00
2022-11-27T02:36:03.032Z,0.00
2022-11-27T02:37:03.018Z,0.00
2022-11-27T02:38:03.019Z,0.00
2022-11-27T02:39:03.050Z,0.00
2022-11-27T02:40:02.992Z,0.00
2022-11-27T02:41:02.988Z,0.00
2022-11-27T02:42:03.061Z,0.00
2022-11-27T02:43:02.971Z,0.00
2022-11-27T02:44:02.999Z,0.00
2022-11-27T02:45:02.963Z,0.00
2022-11-27T02:46:02.976Z,0.00
2022-11-27T02:47:03.942Z,0.00
2022-11-27T02:48:02.932Z,0.00
2022-11-27T02:49:02.954Z,0.00
2022-11-27T02:50:02.928Z,0.00
2022-11-27T02:51:02.908Z,0.00
2022-11-27T02:52:23.250Z,0.00
2022-11-27T02:53:02.900Z,0.00
2022-11-27T02:54:02.904Z,0.00
2022-11-27T02:55:02.874Z,0.00
2022-11-27T02:56:02.862Z,0.00
2022-11-27T02:57:02.858Z,0.00
2022-11-27T02:58:08.768Z,0.00
2022-11-27T02:59:03.936Z,0.00
2022-11-27T03:00:02.851Z,0.00
2022-11-27T03:01:02.825Z,0.00
2022-11-27T03:02:02.907Z,0.00
2022-11-27T03:03:02.881Z,0.00
2022-11-27T03:04:02.819Z,0.00
2022-11-27T03:05:02.790Z,0.00
2022-11-27T03:06:02.780Z,0.00
2022-11-27T03:07:02.771Z,0.00
2022-11-27T03:08:02.770Z,0.00
2022-11-27T03:09:02.779Z,0.00
2022-11-27T03:10:02.739Z,0.00
2022-11-27T03:11:02.741Z,0.00
2022-11-27T03:12:02.731Z,0.00
2022-11-27T03:13:02.716Z,0.00
2022-11-27T03:14:02.747Z,0.00
2022-11-27T03:15:02.781Z,0.00
2022-11-27T03:16:02.747Z,0.00
2022-11-27T03:17:02.688Z,0.00
2022-11-27T03:18:02.693Z,0.00
2022-11-27T03:19:02.698Z,0.00
2022-11-27T03:20:02.667Z,0.00
2022-11-27T03:21:02.659Z,0.00
2022-11-27T03:22:02.635Z,0.00
2022-11-27T03:23:03.639Z,0.00
2022-11-27T03:24:02.659Z,0.00
2022-11-27T03:25:02.812Z,0.00
2022-11-27T03:26:02.610Z,0.00
2022-11-27T03:27:02.592Z,0.00
2022-11-27T03:28:03.599Z,0.00
2022-11-27T03:29:02.585Z,0.00
2022-11-27T03:30:02.614Z,0.00
2022-11-27T03:31:02.671Z,0.00
2022-11-27T03:32:02.564Z,0.00
2022-11-27T03:33:02.556Z,0.00
2022-11-27T03:34:02.565Z,0.00
2022-11-27T03:35:02.565Z,0.00
2022-11-27T03:36:02.531Z,0.00
2022-11-27T03:37:02.530Z,0.00
2022-11-27T03:38:02.519Z,0.00
2022-11-27T03:39:02.500Z,0.00
2022-11-27T03:40:02.533Z,0.00
2022-11-27T03:41:02.492Z,0.00
2022-11-27T03:42:02.475Z,0.00
2022-11-27T03:43:02.479Z,0.00
2022-11-27T03:44:02.459Z,0.00
2022-11-27T03:45:02.487Z,0.00
2022-11-27T03:46:02.517Z,0.00
2022-11-27T03:47:02.522Z,0.00
2022-11-27T03:48:02.429Z,0.00
2022-11-27T03:49:02.423Z,0.00
2022-11-27T03:50:02.444Z,0.00
2022-11-27T03:51:02.415Z,0.00
2022-11-27T03:52:02.391Z,0.00
2022-11-27T03:53:02.385Z,0.00
2022-11-27T03:54:02.381Z,0.00
2022-11-27T03:55:02.414Z,0.00
2022-11-27T03:56:06.757Z,0.00
2022-11-27T03:57:04.354Z,0.00
2022-11-27T03:58:02.348Z,0.00
2022-11-27T03:59:02.340Z,0.00
2022-11-27T04:00:02.368Z,0.00
2022-11-27T04:01:17.613Z,0.00
2022-11-27T04:02:02.349Z,0.00
2022-11-27T04:03:02.387Z,0.00
2022-11-27T04:04:02.339Z,0.00
2022-11-27T04:05:02.323Z,0.00
2022-11-27T04:06:02.307Z,0.00
2022-11-27T04:07:02.294Z,0.00
2022-11-27T04:08:02.264Z,0.00
2022-11-27T04:09:02.257Z,0.00
2022-11-27T04:10:02.285Z,0.00
2022-11-27T04:11:02.260Z,0.00
2022-11-27T04:12:02.243Z,0.00
2022-11-27T04:13:02.233Z,0.00
2022-11-27T04:14:02.217Z,0.00
2022-11-27T04:15:02.213Z,0.00
2022-11-27T04:16:02.378Z,0.00
2022-11-27T04:17:02.200Z,0.00
2022-11-27T04:18:02.185Z,0.00
2022-11-27T04:19:02.256Z,0.00
2022-11-27T04:20:02.165Z,0.00
2022-11-27T04:21:02.194Z,0.00
2022-11-27T04:22:02.158Z,0.00
2022-11-27T04:23:02.147Z,0.00
2022-11-27T04:24:02.145Z,0.00
2022-11-27T04:25:02.124Z,0.00
2022-11-27T04:26:02.164Z,0.00
2022-11-27T04:27:02.121Z,0.00
2022-11-27T04:28:02.105Z,0.00
2022-11-27T04:29:02.093Z,0.00
2022-11-27T04:30:02.088Z,0.00
2022-11-27T04:31:02.160Z,0.00
2022-11-27T04:32:02.073Z,0.00
2022-11-27T04:33:02.067Z,0.00
2022-11-27T04:34:02.054Z,0.00
2022-11-27T04:35:02.125Z,0.00
2022-11-27T04:36:02.071Z,0.00
2022-11-27T04:37:02.025Z,0.00
2022-11-27T04:38:02.026Z,0.00
2022-11-27T04:39:02.023Z,0.00
2022-11-27T04:40:02.016Z,0.00
2022-11-27T04:41:02.020Z,0.00
2022-11-27T04:42:01.995Z,0.00
2022-11-27T04:43:01.981Z,0.00
2022-11-27T04:44:01.977Z,0.00
2022-11-27T04:45:01.973Z,0.00
2022-11-27T04:46:01.983Z,0.00
2022-11-27T04:47:01.997Z,0.00
2022-11-27T04:48:01.949Z,0.00
2022-11-27T04:49:01.919Z,0.00
2022-11-27T04:50:02.928Z,0.00
2022-11-27T04:51:02.100Z,0.00
2022-11-27T04:52:01.908Z,0.00
2022-11-27T04:53:01.898Z,0.00
2022-11-27T04:54:17.592Z,0.00
2022-11-27T04:55:01.870Z,0.00
2022-11-27T04:56:02.897Z,0.00
2022-11-27T04:57:01.869Z,0.00
2022-11-27T04:58:01.856Z,0.00
2022-11-27T04:59:01.855Z,0.00
2022-11-27T05:00:01.839Z,0.00
2022-11-27T05:01:01.943Z,0.00
2022-11-27T05:02:01.825Z,0.00
2022-11-27T05:03:01.873Z,0.00
2022-11-27T05:04:01.819Z,0.00
2022-11-27T05:05:01.822Z,0.00
2022-11-27T05:06:01.826Z,0.00
2022-11-27T05:07:01.854Z,0.00
2022-11-27T05:08:02.814Z,0.00
2022-11-27T05:09:01.769Z,0.00
2022-11-27T05:10:01.755Z,0.00
2022-11-27T05:11:02.751Z,0.00
2022-11-27T05:12:01.738Z,0.00
2022-11-27T05:13:01.764Z,0.00
2022-11-27T05:14:01.723Z,0.00
2022-11-27T05:15:04.436Z,0.00
2022-11-27T05:16:02.778Z,0.00
2022-11-27T05:17:01.699Z,0.00
2022-11-27T05:18:01.724Z,0.00
2022-11-27T05:19:01.698Z,0.00
2022-11-27T05:20:01.688Z,0.00
2022-11-27T05:21:01.663Z,0.00
2022-11-27T05:22:01.650Z,0.00
2022-11-27T05:23:01.877Z,0.00
2022-11-27T05:24:01.631Z,0.00
2022-11-27T05:25:01.636Z,0.00
2022-11-27T05:26:01.615Z,0.00
2022-11-27T05:27:01.612Z,0.00
2022-11-27T05:28:01.622Z,0.00
2022-11-27T05:29:02.601Z,0.00
2022-11-27T05:30:01.584Z,0.00
2022-11-27T05:31:01.601Z,0.00
2022-11-27T05:32:01.578Z,0.00
2022-11-27T05:33:01.837Z,0.00
2022-11-27T05:34:01.556Z,0.00
2022-11-27T05:35:01.547Z,0.00
2022-11-27T05:36:01.528Z,0.00
2022-11-27T05:37:01.526Z,0.00
2022-11-27T05:38:01.551Z,0.00
2022-11-27T05:39:01.585Z,0.00
2022-11-27T05:40:01.499Z,0.00
2022-11-27T05:41:01.490Z,0.00
2022-11-27T05:42:01.478Z,0.00
2022-11-27T05:43:01.501Z,0.00
2022-11-27T05:44:01.473Z,0.00
2022-11-27T05:45:01.462Z,0.00
2022-11-27T05:46:01.447Z,0.00
2022-11-27T05:47:01.522Z,0.00
2022-11-27T05:48:01.458Z,0.00
2022-11-27T05:49:01.428Z,0.00
2022-11-27T05:50:01.408Z,0.00
2022-11-27T05:51:01.402Z,0.00
2022-11-27T05:52:01.398Z,0.00
2022-11-27T05:53:21.997Z,0.00
2022-11-27T05:54:01.395Z,0.00
2022-11-27T05:55:01.441Z,0.00
2022-11-27T05:56:01.370Z,0.00
2022-11-27T05:57:01.354Z,0.00
2022-11-27T05:58:01.370Z,0.00
2022-11-27T05:59:01.337Z,0.00
2022-11-27T06:00:01.326Z,0.00
2022-11-27T06:01:01.321Z,0.00
2022-11-27T06:02:01.396Z,0.00
2022-11-27T06:03:01.419Z,0.00
2022-11-27T06:04:02.340Z,0.00
2022-11-27T06:05:01.289Z,0.00
2022-11-27T06:06:01.279Z,0.00
2022-11-27T06:07:01.275Z,0.00
2022-11-27T06:08:01.281Z,0.00
2022-11-27T06:09:01.280Z,0.00
2022-11-27T06:10:01.250Z,0.00
2022-11-27T06:11:01.309Z,0.00
2022-11-27T06:12:01.231Z,0.00
2022-11-27T06:13:01.218Z,0.00
2022-11-27T06:14:01.246Z,0.00
2022-11-27T06:15:01.204Z,0.00
2022-11-27T06:16:01.236Z,0.00
2022-11-27T06:17:01.185Z,0.00
2022-11-27T06:18:01.178Z,0.00
2022-11-27T06:19:01.201Z,0.00
2022-11-27T06:20:01.167Z,0.00
2022-11-27T06:21:01.158Z,0.00
2022-11-27T06:22:01.148Z,0.00
2022-11-27T06:23:01.132Z,0.00
2022-11-27T06:24:02.407Z,0.00
2022-11-27T06:25:01.115Z,0.00
2022-11-27T06:26:01.117Z,0.00
2022-11-27T06:27:01.171Z,0.00
2022-11-27T06:28:01.092Z,0.00
2022-11-27T06:29:01.107Z,0.00
2022-11-27T06:30:01.074Z,0.00
2022-11-27T06:31:41.714Z,5.62
2022-11-27T06:32:01.108Z,5.62
2022-11-27T06:33:01.052Z,5.62
2022-11-27T06:34:01.078Z,5.62
2022-11-27T06:35:01.045Z,5.62
2022-11-27T06:36:01.025Z,11.25
2022-11-27T06:37:01.018Z,11.25
2022-11-27T06:38:01.005Z,11.25
2022-11-27T06:39:01.027Z,11.25
2022-11-27T06:40:00.998Z,16.88
2022-11-27T06:41:00.988Z,16.88
2022-11-27T06:42:01.983Z,16.88
2022-11-27T06:43:01.042Z,16.88
2022-11-27T06:44:00.988Z,16.88
2022-11-27T06:45:00.953Z,16.88
2022-11-27T06:46:00.996Z,22.50
2022-11-27T06:47:00.935Z,22.50
2022-11-27T06:48:00.934Z,22.50
2022-11-27T06:49:00.953Z,22.50
2022-11-27T06:50:00.914Z,22.50
2022-11-27T06:51:00.898Z,28.12
2022-11-27T06:52:00.889Z,28.12
2022-11-27T06:53:00.883Z,28.12
2022-11-27T06:54:25.197Z,28.12
2022-11-27T06:55:00.873Z,33.75
2022-11-27T06:56:00.869Z,33.75
2022-11-27T06:57:00.855Z,33.75
2022-11-27T06:58:00.835Z,39.38
2022-11-27T06:59:00.972Z,39.38
2022-11-27T07:00:00.822Z,45.00
2022-11-27T07:01:00.861Z,50.62
2022-11-27T07:02:00.926Z,56.25
2022-11-27T07:03:00.796Z,56.25
2022-11-27T07:04:00.811Z,61.88
2022-11-27T07:05:00.774Z,67.50
2022-11-27T07:06:00.772Z,73.12
2022-11-27T07:07:00.761Z,73.12
2022-11-27T07:08:00.757Z,73.12
2022-11-27T07:09:00.784Z,78.75
2022-11-27T07:10:00.730Z,84.38
2022-11-27T07:11:00.723Z,90.00
2022-11-27T07:12:34.827Z,90.00
2022-11-27T07:13:00.718Z,95.62
2022-11-27T07:14:00.734Z,101.25
2022-11-27T07:15:04.194Z,106.88
2022-11-27T07:16:01.762Z,118.12
2022-11-27T07:17:00.676Z,123.75
2022-11-27T07:18:00.675Z,129.38
2022-11-27T07:19:00.692Z,135.00
2022-11-27T07:20:00.655Z,146.25
2022-11-27T07:21:00.640Z,151.88
2022-11-27T07:22:08.613Z,157.50
2022-11-27T07:23:00.622Z,157.50
2022-11-27T07:24:00.656Z,168.75
2022-11-27T07:25:00.605Z,180.00
2022-11-27T07:26:00.604Z,185.62
2022-11-27T07:27:00.588Z,185.62
2022-11-27T07:28:00.580Z,191.25
2022-11-27T07:29:00.609Z,196.88
2022-11-27T07:30:00.571Z,202.50
2022-11-27T07:31:00.646Z,213.75
2022-11-27T07:32:00.622Z,241.88
2022-11-27T07:33:00.548Z,253.12
2022-11-27T07:34:00.568Z,253.12
2022-11-27T07:35:00.530Z,264.38
2022-11-27T07:36:00.521Z,292.50
2022-11-27T07:37:00.499Z,303.75
2022-11-27T07:38:00.492Z,309.38
2022-11-27T07:39:00.522Z,360.00
2022-11-27T07:40:03.240Z,461.25
2022-11-27T07:41:01.479Z,472.50
2022-11-27T07:42:23.206Z,511.88
2022-11-27T07:43:01.622Z,675.00
2022-11-27T07:44:00.483Z,860.62
2022-11-27T07:45:00.440Z,961.88
2022-11-27T07:46:00.460Z,967.50
2022-11-27T07:47:00.487Z,736.88
2022-11-27T07:48:00.406Z,973.12
2022-11-27T07:49:01.442Z,973.12
2022-11-27T07:50:00.506Z,871.88
2022-11-27T07:51:00.403Z,911.25
2022-11-27T07:52:00.382Z,1023.75
2022-11-27T07:53:00.364Z,1012.50
2022-11-27T07:54:00.399Z,905.62
2022-11-27T07:55:00.350Z,883.12
2022-11-27T07:56:01.351Z,956.25
2022-11-27T07:57:00.335Z,978.75
2022-11-27T07:58:00.333Z,950.62
2022-11-27T07:59:00.351Z,1012.50
2022-11-27T08:00:00.317Z,1141.88
2022-11-27T08:01:00.369Z,1237.50
2022-11-27T08:02:00.295Z,1198.12
2022-11-27T08:03:00.370Z,1260.00
2022-11-27T08:04:00.316Z,1428.75
2022-11-27T08:05:00.379Z,1445.62
2022-11-27T08:06:00.278Z,1333.12
2022-11-27T08:07:00.279Z,1023.75
2022-11-27T08:08:00.332Z,1096.88
2022-11-27T08:09:00.281Z,1642.50
2022-11-27T08:10:00.233Z,1715.62
2022-11-27T08:11:00.224Z,1254.38
2022-11-27T08:12:00.213Z,556.88
2022-11-27T08:13:00.202Z,528.75
2022-11-27T08:14:00.262Z,708.75
2022-11-27T08:15:00.211Z,866.25
2022-11-27T08:16:00.256Z,961.88
2022-11-27T08:17:00.163Z,1057.50
2022-11-27T08:18:00.160Z,1096.88
2022-11-27T08:19:00.424Z,1276.88
2022-11-27T08:20:00.147Z,1625.62
2022-11-27T08:21:00.138Z,1608.75
2022-11-27T08:22:00.121Z,1822.50
2022-11-27T08:23:03.046Z,2086.88
2022-11-27T08:24:01.145Z,2098.12
2022-11-27T08:25:00.104Z,2103.75
2022-11-27T08:26:00.096Z,1985.62
2022-11-27T08:27:00.100Z,1130.62
2022-11-27T08:28:00.079Z,888.75
2022-11-27T08:29:00.111Z,815.62
2022-11-27T08:30:00.065Z,793.12
2022-11-27T08:31:00.051Z,826.88
2022-11-27T08:32:00.092Z,826.88
2022-11-27T08:33:00.035Z,1046.25
2022-11-27T08:34:00.058Z,1237.50
2022-11-27T08:35:00.092Z,1237.50
2022-11-27T08:36:00.010Z,1856.25
2022-11-27T08:37:00.001Z,2148.75
2022-11-27T08:37:59.991Z,2238.75
2022-11-27T08:38:59.989Z,1721.25
2022-11-27T08:40:00.003Z,1783.12
2022-11-27T08:40:59.967Z,1231.88
2022-11-27T08:41:59.956Z,1496.25
2022-11-27T08:42:59.948Z,1569.38
2022-11-27T08:43:59.943Z,1591.88
2022-11-27T08:45:00.957Z,1693.12
2022-11-27T08:45:59.990Z,1687.50
2022-11-27T08:46:59.909Z,1951.88
2022-11-27T08:47:59.905Z,1293.75
2022-11-27T08:48:59.893Z,1006.88
2022-11-27T08:49:59.924Z,1316.25
2022-11-27T08:50:59.944Z,1248.75
2022-11-27T08:51:59.868Z,1209.38
2022-11-27T08:52:59.863Z,1108.12
2022-11-27T08:53:59.849Z,1530.00
2022-11-27T08:54:59.890Z,776.25
2022-11-27T08:55:59.836Z,596.25
2022-11-27T08:56:59.820Z,585.00
2022-11-27T08:57:59.821Z,545.62
2022-11-27T08:58:59.816Z,562.50
2022-11-27T08:59:59.832Z,613.12
2022-11-27T09:00:59.819Z,658.12
2022-11-27T09:02:00.788Z,742.50
2022-11-27T09:02:59.771Z,984.38
2022-11-27T09:03:59.801Z,1490.62
2022-11-27T09:04:59.790Z,1665.00
2022-11-27T09:05:59.744Z,1811.25
2022-11-27T09:06:59.816Z,1136.25
2022-11-27T09:07:59.783Z,1670.62
2022-11-27T09:08:59.722Z,2278.12
2022-11-27T09:09:59.740Z,1648.12
2022-11-27T09:10:59.712Z,1468.12
2022-11-27T09:11:59.695Z,1985.62
2022-11-27T09:12:59.700Z,1400.62
2022-11-27T09:13:59.689Z,1912.50
2022-11-27T09:14:59.705Z,1676.25
2022-11-27T09:15:59.666Z,2261.25
2022-11-27T09:16:59.756Z,2975.62
2022-11-27T09:17:59.668Z,2671.88
2022-11-27T09:18:59.643Z,2362.50
2022-11-27T09:19:59.669Z,1411.88
2022-11-27T09:20:59.621Z,1074.38
2022-11-27T09:21:59.632Z,821.25
2022-11-27T09:22:59.687Z,720.00
2022-11-27T09:23:59.606Z,1063.12
2022-11-27T09:24:59.624Z,810.00
2022-11-27T09:25:59.585Z,545.62
2022-11-27T09:26:59.592Z,562.50
2022-11-27T09:27:59.582Z,585.00
2022-11-27T09:28:59.577Z,765.00
2022-11-27T09:29:59.587Z,1417.50
2022-11-27T09:30:59.546Z,1558.12
2022-11-27T09:31:59.589Z,1541.25
2022-11-27T09:32:59.529Z,1237.50
2022-11-27T09:33:59.526Z,787.50
2022-11-27T09:34:59.564Z,669.38
2022-11-27T09:35:59.507Z,680.62
2022-11-27T09:36:59.494Z,765.00
2022-11-27T09:37:59.486Z,787.50
2022-11-27T09:38:59.556Z,1046.25
2022-11-27T09:39:59.497Z,1636.88
2022-11-27T09:41:03.071Z,1125.00
2022-11-27T09:42:00.449Z,1344.38
2022-11-27T09:42:59.459Z,2103.75
2022-11-27T09:43:59.438Z,2548.12
2022-11-27T09:44:59.452Z,2896.88
2022-11-27T09:45:59.462Z,2368.12
2022-11-27T09:46:59.413Z,2604.38
2022-11-27T09:47:59.400Z,2761.88
2022-11-27T09:48:59.403Z,2975.62
2022-11-27T09:49:59.414Z,3189.38
2022-11-27T09:50:59.377Z,3093.75
2022-11-27T09:51:59.368Z,3240.00
2022-11-27T09:52:59.366Z,3341.25
2022-11-27T09:53:59.378Z,3110.62
2022-11-27T09:54:59.439Z,3273.75
2022-11-27T09:55:59.334Z,3380.62
2022-11-27T09:56:59.314Z,3363.75
2022-11-27T09:57:59.325Z,3363.75
2022-11-27T09:58:59.314Z,3740.62
2022-11-27T09:59:59.325Z,3690.00
2022-11-27T10:00:59.288Z,2722.50
2022-11-27T10:01:59.389Z,2548.12
2022-11-27T10:02:59.322Z,2908.12
2022-11-27T10:03:59.281Z,2373.75
2022-11-27T10:05:13.459Z,2345.62
2022-11-27T10:06:01.261Z,2525.62
2022-11-27T10:06:59.239Z,1957.50
2022-11-27T10:08:03.424Z,1974.38
2022-11-27T10:09:01.227Z,2160.00
2022-11-27T10:09:59.243Z,3352.50
2022-11-27T10:10:59.279Z,3543.75
2022-11-27T10:11:59.198Z,3335.62
2022-11-27T10:12:59.409Z,3228.75
2022-11-27T10:13:59.196Z,2975.62
2022-11-27T10:14:59.214Z,3105.00
2022-11-27T10:15:59.172Z,2626.88
2022-11-27T10:16:59.220Z,2373.75
2022-11-27T10:17:59.157Z,2295.00
2022-11-27T10:18:59.145Z,1867.50
2022-11-27T10:19:59.175Z,2092.50
2022-11-27T10:20:59.139Z,1884.38
2022-11-27T10:21:59.128Z,1991.25
2022-11-27T10:22:59.118Z,2171.25
2022-11-27T10:23:59.208Z,2036.25
2022-11-27T10:24:59.128Z,2559.38
2022-11-27T10:25:59.118Z,2683.12
2022-11-27T10:26:59.158Z,2508.75
2022-11-27T10:27:59.073Z,1890.00
2022-11-27T10:28:59.072Z,1445.62
2022-11-27T10:29:59.058Z,1541.25
2022-11-27T10:30:59.074Z,1282.50
2022-11-27T10:31:59.097Z,1293.75
2022-11-27T10:32:59.148Z,1783.12
2022-11-27T10:33:59.034Z,1417.50
2022-11-27T10:34:59.027Z,1215.00
2022-11-27T10:35:59.061Z,855.00
2022-11-27T10:36:59.003Z,680.62
2022-11-27T10:38:05.068Z,613.12
2022-11-27T10:39:00.990Z,573.75
2022-11-27T10:39:58.971Z,551.25
2022-11-27T10:40:58.986Z,545.62
2022-11-27T10:41:59.954Z,540.00
2022-11-27T10:42:59.020Z,540.00
2022-11-27T10:44:01.242Z,540.00
2022-11-27T10:44:58.946Z,540.00
2022-11-27T10:45:59.007Z,540.00
2022-11-27T10:46:58.918Z,540.00
2022-11-27T10:47:58.917Z,528.75
2022-11-27T10:48:58.899Z,500.62
2022-11-27T10:49:58.889Z,478.12
2022-11-27T10:50:58.916Z,466.88
2022-11-27T10:51:58.874Z,461.25
2022-11-27T10:52:58.871Z,461.25
2022-11-27T10:53:58.864Z,461.25
2022-11-27T10:54:58.863Z,461.25
2022-11-27T10:55:58.876Z,455.62
2022-11-27T10:56:58.842Z,450.00
2022-11-27T10:57:58.831Z,444.38
2022-11-27T10:58:58.907Z,433.12
2022-11-27T10:59:58.812Z,427.50
2022-11-27T11:00:58.863Z,427.50
2022-11-27T11:01:58.826Z,438.75
2022-11-27T11:02:58.790Z,450.00
2022-11-27T11:03:58.778Z,472.50
2022-11-27T11:05:24.057Z,495.00
2022-11-27T11:07:00.765Z,511.88
2022-11-27T11:07:58.840Z,545.62
2022-11-27T11:09:01.465Z,540.00
2022-11-27T11:09:59.734Z,523.12
2022-11-27T11:10:58.757Z,523.12
2022-11-27T11:11:58.716Z,523.12
2022-11-27T11:12:58.712Z,523.12
2022-11-27T11:13:58.700Z,528.75
2022-11-27T11:14:58.786Z,551.25
2022-11-27T11:15:58.682Z,590.62
2022-11-27T11:16:58.744Z,652.50
2022-11-27T11:17:58.662Z,669.38
2022-11-27T11:18:58.657Z,731.25
2022-11-27T11:19:58.648Z,838.12
2022-11-27T11:20:58.640Z,787.50
2022-11-27T11:21:58.656Z,838.12
2022-11-27T11:22:58.624Z,939.38
2022-11-27T11:23:58.617Z,922.50
2022-11-27T11:24:58.634Z,725.62
2022-11-27T11:25:58.597Z,680.62
2022-11-27T11:26:58.622Z,669.38
2022-11-27T11:27:58.580Z,663.75
2022-11-27T11:28:58.576Z,646.88
2022-11-27T11:29:58.567Z,641.25
2022-11-27T11:30:58.626Z,646.88
2022-11-27T11:31:58.604Z,646.88
2022-11-27T11:32:58.546Z,646.88
2022-11-27T11:33:58.533Z,658.12
2022-11-27T11:35:01.227Z,675.00
2022-11-27T11:35:59.518Z,725.62
2022-11-27T11:36:58.556Z,815.62
2022-11-27T11:37:58.493Z,1006.88
2022-11-27T11:38:58.496Z,1080.00
2022-11-27T11:39:58.472Z,1513.12
2022-11-27T11:40:59.468Z,1878.75
2022-11-27T11:41:58.497Z,2216.25
2022-11-27T11:42:58.441Z,2396.25
2022-11-27T11:43:59.448Z,2373.75
2022-11-27T11:44:58.439Z,2188.12
2022-11-27T11:45:58.464Z,1462.50
2022-11-27T11:46:58.520Z,714.38
2022-11-27T11:47:58.428Z,607.50
2022-11-27T11:48:58.404Z,596.25
2022-11-27T11:49:58.395Z,585.00
2022-11-27T11:50:59.397Z,534.38
2022-11-27T11:51:58.410Z,511.88
2022-11-27T11:52:58.374Z,500.62
2022-11-27T11:53:58.367Z,461.25
2022-11-27T11:54:58.366Z,433.12
2022-11-27T11:55:58.350Z,416.25
2022-11-27T11:56:58.434Z,399.38
2022-11-27T11:57:58.335Z,388.12
2022-11-27T11:58:58.330Z,376.88
2022-11-27T11:59:58.300Z,365.62
2022-11-27T12:01:25.360Z,354.38
2022-11-27T12:02:00.459Z,348.75
2022-11-27T12:02:58.294Z,348.75
2022-11-27T12:03:58.324Z,348.75
2022-11-27T12:04:58.302Z,354.38
2022-11-27T12:05:58.267Z,360.00
2022-11-27T12:06:58.289Z,360.00
2022-11-27T12:07:58.295Z,360.00
2022-11-27T12:08:58.232Z,360.00
2022-11-27T12:09:58.229Z,354.38
2022-11-27T12:10:58.212Z,343.12
2022-11-27T12:11:58.237Z,337.50
2022-11-27T12:12:58.201Z,331.88
2022-11-27T12:13:58.195Z,326.25
2022-11-27T12:14:58.182Z,320.62
2022-11-27T12:15:58.192Z,315.00
2022-11-27T12:16:58.215Z,309.38
2022-11-27T12:17:59.227Z,303.75
2022-11-27T12:18:58.159Z,303.75
2022-11-27T12:19:58.137Z,298.12
2022-11-27T12:20:58.124Z,292.50
2022-11-27T12:21:58.150Z,286.88
2022-11-27T12:22:58.112Z,286.88
2022-11-27T12:23:58.101Z,281.25
2022-11-27T12:24:58.101Z,281.25
2022-11-27T12:25:58.089Z,275.62
2022-11-27T12:26:58.125Z,275.62
2022-11-27T12:27:58.069Z,270.00
2022-11-27T12:28:59.579Z,270.00
2022-11-27T12:29:59.060Z,270.00
2022-11-27T12:30:58.050Z,270.00
2022-11-27T12:31:58.102Z,270.00
2022-11-27T12:32:58.037Z,264.38
2022-11-27T12:33:58.096Z,264.38
2022-11-27T12:34:58.011Z,264.38
2022-11-27T12:35:58.003Z,264.38
2022-11-27T12:36:57.997Z,258.75
2022-11-27T12:37:58.016Z,253.12
2022-11-27T12:38:57.981Z,241.88
2022-11-27T12:39:57.980Z,236.25
2022-11-27T12:40:57.964Z,225.00
2022-11-27T12:41:57.956Z,219.38
2022-11-27T12:42:57.974Z,208.12
2022-11-27T12:43:57.936Z,202.50
2022-11-27T12:44:57.928Z,196.88
2022-11-27T12:45:57.960Z,191.25
2022-11-27T12:46:57.920Z,185.62
2022-11-27T12:47:57.934Z,180.00
2022-11-27T12:48:57.896Z,174.38
2022-11-27T12:49:57.949Z,174.38
2022-11-27T12:50:57.875Z,168.75